Tajima Maru — JD2342 — position and weather

sailwx.info

Track history (hours):
 
Tides and Currents Weather Stations Pressure Air Temp Water Temp Dewpoint Dewpoint Depression Visibility Wind Speed Wind Dir Waves Ship Positions

Tajima Maru

Last reported at 2018-Jan-24 02:03 UTC. Time now 2018-Jan-24 05:54 UTC.
Position N 34°33' E 135°27'.

Length 42 m; draft 3.2 m.

Type: Tug. MMSI: 431000118.

Date/timePositionNaut miles runAvg speedWind from/ knotsBaromVisibWave heightAir tempDewpointWater temp
2018-Jan-24 02:03N 34°33' E 135°27'0 3.1
2018-Jan-24 02:00N 34°33' E 135°27'4 7.4
2018-Jan-24 01:31N 34°33' E 135°22'2 3.8
2018-Jan-24 01:00N 34°31' E 135°23'0 0.0
2018-Jan-24 00:31N 34°31' E 135°23'0 0.0
2018-Jan-24 00:01N 34°31' E 135°23'0 0.8
2018-Jan-23 23:30N 34°31' E 135°23'1 2.4
2018-Jan-23 23:00N 34°32' E 135°23'0 0.1
2018-Jan-23 22:30N 34°32' E 135°23'1 2.5
2018-Jan-23 22:01N 34°31' E 135°23'0 0.5
2018-Jan-23 21:30N 34°31' E 135°24'1 1.1
2018-Jan-23 21:00N 34°31' E 135°24'1 1.1
2018-Jan-23 20:30N 34°32' E 135°24'1 1.0
2018-Jan-23 20:00N 34°32' E 135°24'3 5.1
2018-Jan-23 19:31N 34°33' E 135°27'0 0.0
2018-Jan-23 19:00N 34°33' E 135°27'0 0.0
2018-Jan-23 08:34N 34°33' E 135°27'0 5.2
2018-Jan-23 08:30N 34°33' E 135°26'2 4.4
2018-Jan-23 08:00N 34°35' E 135°25'1 1.1
2018-Jan-23 07:30N 34°35' E 135°26'2 5.0
2018-Jan-23 07:00N 34°36' E 135°23'4 7.9
2018-Jan-23 06:30N 34°33' E 135°27'0 0.2
2018-Jan-23 06:00N 34°33' E 135°27'0 0.0
2018-Jan-23 05:30N 34°33' E 135°27'0 0.0
2018-Jan-23 05:00N 34°33' E 135°27'0 0.0
2018-Jan-23 04:30N 34°33' E 135°27'0 0.0
2018-Jan-23 03:59N 34°33' E 135°27'0 0.0
2018-Jan-23 03:30N 34°33' E 135°27'0 0.0
2018-Jan-23 03:00N 34°33' E 135°27'0 0.6
2018-Jan-23 02:30N 34°33' E 135°26'2 3.5
2018-Jan-23 02:00N 34°33' E 135°24'1 1.2
2018-Jan-23 01:30N 34°33' E 135°25'1 2.7
2018-Jan-23 01:00N 34°33' E 135°27'0 0.0
2018-Jan-23 00:30N 34°33' E 135°27'0 0.0
2018-Jan-23 00:00N 34°33' E 135°27'0 0.0
2018-Jan-22 23:30N 34°33' E 135°27'0 0.0
2018-Jan-22 22:59N 34°33' E 135°27'0 0.0
2018-Jan-22 22:30N 34°33' E 135°27'0 0.0
2018-Jan-22 07:05N 34°33' E 135°27'1 6.0
2018-Jan-22 07:00N 34°33' E 135°26'611.2
2018-Jan-22 06:30N 34°34' E 135°19'611.7
2018-Jan-22 06:00N 34°34' E 135°12'611.7
2018-Jan-22 05:30N 34°35' E 135°05'612.3
2018-Jan-22 05:00N 34°37' E 134°58'712.3
2018-Jan-22 04:25N 34°40' E 134°50'3 7.3
2018-Jan-22 04:00N 34°43' E 134°51'0 0.0
2018-Jan-22 03:30N 34°43' E 134°51'3 6.2
2018-Jan-22 03:00N 34°40' E 134°50'611.6
2018-Jan-22 02:30N 34°37' E 134°57'714.3
2018-Jan-22 02:00N 34°36' E 135°05'612.3
2018-Jan-22 01:30N 34°36' E 135°13'612.1
2018-Jan-22 01:00N 34°34' E 135°20'510.7
2018-Jan-22 00:30N 34°33' E 135°26'0 0.9
2018-Jan-22 00:00N 34°33' E 135°27'0 0.0
2018-Jan-21 23:30N 34°33' E 135°27'0 0.0
2018-Jan-21 23:00N 34°33' E 135°27'0 0.0
2018-Jan-21 22:30N 34°33' E 135°27'0 0.0
2018-Jan-21 09:35N 34°33' E 135°27'0 3.1
2018-Jan-21 09:30N 34°33' E 135°26'510.3
2018-Jan-21 09:00N 34°32' E 135°21'612.8
2018-Jan-21 08:30N 34°28' E 135°14'612.8
2018-Jan-21 08:00N 34°24' E 135°08'612.2
2018-Jan-21 07:30N 34°20' E 135°02'611.0
2018-Jan-21 07:00N 34°15' E 134°59'5 9.8
2018-Jan-21 06:31N 34°20' E 134°60'713.3
2018-Jan-21 06:00N 34°25' E 135°05'714.3
2018-Jan-21 05:31N 34°29' E 135°12'612.5
2018-Jan-21 05:00N 34°33' E 135°19'4 8.9
2018-Jan-21 04:30N 34°33' E 135°24'0 0.6
2018-Jan-21 04:00N 34°33' E 135°24'1 2.6
2018-Jan-21 03:30N 34°33' E 135°26'1 1.5
2018-Jan-21 03:00N 34°33' E 135°27'0 0.0
2018-Jan-21 02:30N 34°33' E 135°27'0 0.0
2018-Jan-21 02:00N 34°33' E 135°27'0 0.0
2018-Jan-21 01:30N 34°33' E 135°27'0 0.0
2018-Jan-21 00:57N 34°33' E 135°27'0 0.0
2018-Jan-21 00:30N 34°33' E 135°27'0 0.0
2018-Jan-21 00:00N 34°33' E 135°27'0 0.0
2018-Jan-20 23:30N 34°33' E 135°27'0 0.0
2018-Jan-20 22:59N 34°33' E 135°27'0 0.0
2018-Jan-20 22:30N 34°33' E 135°27'0 0.0
2018-Jan-20 00:21N 34°33' E 135°27'2 5.7
2018-Jan-20 00:00N 34°33' E 135°24'0 0.0
2018-Jan-19 23:30N 34°33' E 135°24'0 0.1
2018-Jan-19 23:00N 34°33' E 135°24'0 0.8
2018-Jan-19 22:30N 34°33' E 135°24'3 5.4
2018-Jan-19 22:00N 34°33' E 135°20'4 7.3
2018-Jan-19 21:31N 34°32' E 135°16'713.0
2018-Jan-19 21:00N 34°28' E 135°10'714.1
2018-Jan-19 20:30N 34°23' E 135°04'612.6
2018-Jan-19 20:01N 34°18' E 134°59'510.9
2018-Jan-19 19:30N 34°13' E 134°59'2 3.8
2018-Jan-19 19:00N 34°12' E 135°01'4 7.9
2018-Jan-19 18:30N 34°15' E 135°02'611.6
2018-Jan-19 18:00N 34°20' E 135°05'713.2
2018-Jan-19 17:30N 34°26' E 135°10'613.0
2018-Jan-19 17:00N 34°30' E 135°17'612.6
2018-Jan-19 16:30N 34°33' E 135°23'3 5.9
2018-Jan-19 16:00N 34°33' E 135°27'0 0.0
2018-Jan-19 15:30N 34°33' E 135°27'  
Track history (hours):
 
Tides and Currents Weather Stations Pressure Air Temp Water Temp Dewpoint Dewpoint Depression Visibility Wind Speed Wind Dir Waves Ship Positions

Tajima Maru

Last reported at 2018-Jan-24 02:03 UTC. Time now 2018-Jan-24 05:54 UTC.
Position N 34°33' E 135°27'.

Length 42 m; draft 3.2 m.

Type: Tug. MMSI: 431000118.

Date/timePositionNaut miles runAvg speedWind from/ knotsBaromVisibWave heightAir tempDewpointWater temp
2018-Jan-24 02:03N 34°33' E 135°27'0 3.1
2018-Jan-24 02:00N 34°33' E 135°27'4 7.4
2018-Jan-24 01:31N 34°33' E 135°22'2 3.8
2018-Jan-24 01:00N 34°31' E 135°23'0 0.0
2018-Jan-24 00:31N 34°31' E 135°23'0 0.0
2018-Jan-24 00:01N 34°31' E 135°23'0 0.8
2018-Jan-23 23:30N 34°31' E 135°23'1 2.4
2018-Jan-23 23:00N 34°32' E 135°23'0 0.1
2018-Jan-23 22:30N 34°32' E 135°23'1 2.5
2018-Jan-23 22:01N 34°31' E 135°23'0 0.5
2018-Jan-23 21:30N 34°31' E 135°24'1 1.1
2018-Jan-23 21:00N 34°31' E 135°24'1 1.1
2018-Jan-23 20:30N 34°32' E 135°24'1 1.0
2018-Jan-23 20:00N 34°32' E 135°24'3 5.1
2018-Jan-23 19:31N 34°33' E 135°27'0 0.0
2018-Jan-23 19:00N 34°33' E 135°27'0 0.0
2018-Jan-23 08:34N 34°33' E 135°27'0 5.2
2018-Jan-23 08:30N 34°33' E 135°26'2 4.4
2018-Jan-23 08:00N 34°35' E 135°25'1 1.1
2018-Jan-23 07:30N 34°35' E 135°26'2 5.0
2018-Jan-23 07:00N 34°36' E 135°23'4 7.9
2018-Jan-23 06:30N 34°33' E 135°27'0 0.2
2018-Jan-23 06:00N 34°33' E 135°27'0 0.0
2018-Jan-23 05:30N 34°33' E 135°27'0 0.0
2018-Jan-23 05:00N 34°33' E 135°27'0 0.0
2018-Jan-23 04:30N 34°33' E 135°27'0 0.0
2018-Jan-23 03:59N 34°33' E 135°27'0 0.0
2018-Jan-23 03:30N 34°33' E 135°27'0 0.0
2018-Jan-23 03:00N 34°33' E 135°27'0 0.6
2018-Jan-23 02:30N 34°33' E 135°26'2 3.5
2018-Jan-23 02:00N 34°33' E 135°24'1 1.2
2018-Jan-23 01:30N 34°33' E 135°25'1 2.7
2018-Jan-23 01:00N 34°33' E 135°27'0 0.0
2018-Jan-23 00:30N 34°33' E 135°27'0 0.0
2018-Jan-23 00:00N 34°33' E 135°27'0 0.0
2018-Jan-22 23:30N 34°33' E 135°27'0 0.0
2018-Jan-22 22:59N 34°33' E 135°27'0 0.0
2018-Jan-22 22:30N 34°33' E 135°27'0 0.0
2018-Jan-22 07:05N 34°33' E 135°27'1 6.0
2018-Jan-22 07:00N 34°33' E 135°26'611.2
2018-Jan-22 06:30N 34°34' E 135°19'611.7
2018-Jan-22 06:00N 34°34' E 135°12'611.7
2018-Jan-22 05:30N 34°35' E 135°05'612.3
2018-Jan-22 05:00N 34°37' E 134°58'712.3
2018-Jan-22 04:25N 34°40' E 134°50'3 7.3
2018-Jan-22 04:00N 34°43' E 134°51'0 0.0
2018-Jan-22 03:30N 34°43' E 134°51'3 6.2
2018-Jan-22 03:00N 34°40' E 134°50'611.6
2018-Jan-22 02:30N 34°37' E 134°57'714.3
2018-Jan-22 02:00N 34°36' E 135°05'612.3
2018-Jan-22 01:30N 34°36' E 135°13'612.1
2018-Jan-22 01:00N 34°34' E 135°20'510.7
2018-Jan-22 00:30N 34°33' E 135°26'0 0.9
2018-Jan-22 00:00N 34°33' E 135°27'0 0.0
2018-Jan-21 23:30N 34°33' E 135°27'0 0.0
2018-Jan-21 23:00N 34°33' E 135°27'0 0.0
2018-Jan-21 22:30N 34°33' E 135°27'0 0.0
2018-Jan-21 09:35N 34°33' E 135°27'0 3.1
2018-Jan-21 09:30N 34°33' E 135°26'510.3
2018-Jan-21 09:00N 34°32' E 135°21'612.8
2018-Jan-21 08:30N 34°28' E 135°14'612.8
2018-Jan-21 08:00N 34°24' E 135°08'612.2
2018-Jan-21 07:30N 34°20' E 135°02'611.0
2018-Jan-21 07:00N 34°15' E 134°59'5 9.8
2018-Jan-21 06:31N 34°20' E 134°60'713.3
2018-Jan-21 06:00N 34°25' E 135°05'714.3
2018-Jan-21 05:31N 34°29' E 135°12'612.5
2018-Jan-21 05:00N 34°33' E 135°19'4 8.9
2018-Jan-21 04:30N 34°33' E 135°24'0 0.6
2018-Jan-21 04:00N 34°33' E 135°24'1 2.6
2018-Jan-21 03:30N 34°33' E 135°26'1 1.5
2018-Jan-21 03:00N 34°33' E 135°27'0 0.0
2018-Jan-21 02:30N 34°33' E 135°27'0 0.0
2018-Jan-21 02:00N 34°33' E 135°27'0 0.0
2018-Jan-21 01:30N 34°33' E 135°27'0 0.0
2018-Jan-21 00:57N 34°33' E 135°27'0 0.0
2018-Jan-21 00:30N 34°33' E 135°27'0 0.0
2018-Jan-21 00:00N 34°33' E 135°27'0 0.0
2018-Jan-20 23:30N 34°33' E 135°27'0 0.0
2018-Jan-20 22:59N 34°33' E 135°27'0 0.0
2018-Jan-20 22:30N 34°33' E 135°27'0 0.0
2018-Jan-20 00:21N 34°33' E 135°27'2 5.7
2018-Jan-20 00:00N 34°33' E 135°24'0 0.0
2018-Jan-19 23:30N 34°33' E 135°24'0 0.1
2018-Jan-19 23:00N 34°33' E 135°24'0 0.8
2018-Jan-19 22:30N 34°33' E 135°24'3 5.4
2018-Jan-19 22:00N 34°33' E 135°20'4 7.3
2018-Jan-19 21:31N 34°32' E 135°16'713.0
2018-Jan-19 21:00N 34°28' E 135°10'714.1
2018-Jan-19 20:30N 34°23' E 135°04'612.6
2018-Jan-19 20:01N 34°18' E 134°59'510.9
2018-Jan-19 19:30N 34°13' E 134°59'2 3.8
2018-Jan-19 19:00N 34°12' E 135°01'4 7.9
2018-Jan-19 18:30N 34°15' E 135°02'611.6
2018-Jan-19 18:00N 34°20' E 135°05'713.2
2018-Jan-19 17:30N 34°26' E 135°10'613.0
2018-Jan-19 17:00N 34°30' E 135°17'612.6
2018-Jan-19 16:30N 34°33' E 135°23'3 5.9
2018-Jan-19 16:00N 34°33' E 135°27'0 0.0
2018-Jan-19 15:30N 34°33' E 135°27'  

Dump ship's entire track history